Time;durP1;ratioP1;P1;durP2;ratioP2;P2;SDS_P1;SDS_P2;PMS_P1;PMS_P2;Temp;Humidity;BMP_temperature;BMP_pressure;BME280_temperature;BME280_humidity;BME280_pressure;Samples;Min_cycle;Max_cycle;Signal;HPM_P1;HPM_P2
2022/04/06 00:00:48;;;;;;;22.98;11.18;;;9.10;99.90;;;;;;5031862;28;20473;-58
2022/04/06 00:03:15;;;;;;;24.58;11.18;;;9.10;99.90;;;;;;5031337;28;20419;-58
2022/04/06 00:05:44;;;;;;;23.58;11.02;;;9.10;99.90;;;;;;5031658;28;20921;-56
2022/04/06 00:08:11;;;;;;;25.67;10.77;;;9.20;99.90;;;;;;5031697;28;20430;-58
2022/04/06 00:10:37;;;;;;;21.60;10.80;;;9.10;99.90;;;;;;5031741;28;20419;-58
2022/04/06 00:13:04;;;;;;;25.47;10.60;;;9.20;99.90;;;;;;5031915;28;20419;-58
2022/04/06 00:15:31;;;;;;;22.67;10.63;;;9.10;99.90;;;;;;5031712;28;20411;-58
2022/04/06 00:17:58;;;;;;;21.77;10.02;;;9.10;99.90;;;;;;5031187;28;20481;-58
2022/04/06 00:20:24;;;;;;;23.77;9.90;;;9.00;99.90;;;;;;5031639;28;21029;-58
2022/04/06 00:22:52;;;;;;;21.25;10.60;;;9.10;99.90;;;;;;5031527;28;20513;-58
2022/04/06 00:25:19;;;;;;;20.48;10.65;;;9.10;99.90;;;;;;5031653;28;20427;-58
2022/04/06 00:27:45;;;;;;;21.50;9.97;;;9.00;99.90;;;;;;5030989;28;20415;-58
2022/04/06 00:30:12;;;;;;;21.52;9.98;;;9.00;99.90;;;;;;5031504;28;20957;-58
2022/04/06 00:32:39;;;;;;;20.20;9.85;;;9.00;99.90;;;;;;5031671;28;20904;-58
2022/04/06 00:37:53;;;;;;;22.98;9.45;;;9.00;99.90;;;;;;5031059;28;20398;-58
2022/04/06 00:40:19;;;;;;;20.47;9.77;;;9.00;99.90;;;;;;5031066;28;20414;-58
2022/04/06 00:42:46;;;;;;;20.40;9.20;;;9.10;99.90;;;;;;5031086;28;20928;-58
2022/04/06 00:45:13;;;;;;;21.97;8.97;;;9.00;99.90;;;;;;5031152;28;20427;-58
2022/04/06 00:47:40;;;;;;;22.10;9.65;;;9.00;99.90;;;;;;5031073;28;20442;-58
2022/04/06 00:50:07;;;;;;;18.83;8.95;;;9.10;99.90;;;;;;5031052;28;20473;-58
2022/04/06 00:52:34;;;;;;;16.60;8.70;;;9.10;99.90;;;;;;5031113;28;20419;-58
2022/04/06 00:55:03;;;;;;;21.55;9.30;;;9.00;99.90;;;;;;5031093;28;20488;-58
2022/04/06 00:57:30;;;;;;;21.55;9.60;;;9.00;99.90;;;;;;5030324;28;20469;-58
2022/04/06 00:59:58;;;;;;;22.52;9.65;;;9.00;99.90;;;;;;5031178;28;20453;-58
2022/04/06 01:02:25;;;;;;;17.02;8.50;;;9.00;99.90;;;;;;5030987;28;20774;-58
2022/04/06 01:04:51;;;;;;;20.07;9.43;;;9.00;99.90;;;;;;5030845;28;20524;-58
2022/04/06 01:07:19;;;;;;;20.27;9.20;;;8.90;99.90;;;;;;5030422;28;20414;-58
2022/04/06 01:09:46;;;;;;;17.63;8.77;;;8.90;99.90;;;;;;5030766;28;20418;-58
2022/04/06 01:12:14;;;;;;;21.20;9.23;;;8.90;99.90;;;;;;5031113;28;20489;-58
2022/04/06 01:14:41;;;;;;;18.67;9.03;;;8.90;99.90;;;;;;5030013;28;20423;-58
2022/04/06 01:17:10;;;;;;;21.75;9.27;;;8.90;99.90;;;;;;5030423;28;20422;-58
2022/04/06 01:19:37;;;;;;;18.23;8.88;;;8.90;99.90;;;;;;5030660;28;20418;-56
2022/04/06 01:22:09;;;;;;;17.73;8.80;;;8.80;99.90;;;;;;5030800;28;20498;-58
2022/04/06 01:24:35;;;;;;;19.67;8.77;;;8.70;99.90;;;;;;5030715;28;20446;-58
2022/04/06 01:27:02;;;;;;;17.17;8.18;;;8.70;99.90;;;;;;5030305;28;20427;-58
2022/04/06 01:29:29;;;;;;;13.05;7.82;;;8.80;99.90;;;;;;5030495;28;20415;-58
2022/04/06 01:31:56;;;;;;;13.45;7.60;;;8.70;99.90;;;;;;5030677;28;20496;-57
2022/04/06 01:34:23;;;;;;;15.77;8.15;;;8.70;99.90;;;;;;5030696;28;20417;-56
2022/04/06 01:36:49;;;;;;;15.57;8.10;;;8.80;99.90;;;;;;5029976;28;20493;-56
2022/04/06 01:39:17;;;;;;;18.52;8.63;;;8.80;99.90;;;;;;5030329;28;20419;-58
2022/04/06 01:41:44;;;;;;;18.30;8.35;;;8.80;99.90;;;;;;5030188;28;20947;-57
2022/04/06 01:44:11;;;;;;;16.63;7.93;;;8.80;99.90;;;;;;5030588;28;20533;-58
2022/04/06 01:46:37;;;;;;;16.80;7.60;;;8.80;99.90;;;;;;5029925;28;20430;-57
2022/04/06 01:53:02;;;;;;;14.15;7.60;;;8.80;99.90;;;;;;5030449;28;20410;-59
2022/04/06 01:55:31;;;;;;;18.17;8.27;;;8.80;99.90;;;;;;5027777;28;20485;-58
2022/04/06 01:57:59;;;;;;;17.27;7.82;;;8.80;99.90;;;;;;5029665;28;20423;-55
2022/04/06 02:00:26;;;;;;;18.75;7.68;;;8.80;99.90;;;;;;5030480;28;20469;-53
2022/04/06 02:02:54;;;;;;;14.48;7.38;;;8.70;99.90;;;;;;5030292;28;20419;-51
2022/04/06 02:05:22;;;;;;;16.92;7.45;;;8.70;99.90;;;;;;5030272;28;20430;-57
2022/04/06 02:07:49;;;;;;;19.13;7.55;;;8.70;99.90;;;;;;5029723;28;20426;-54
2022/04/06 02:10:17;;;;;;;17.08;7.63;;;8.80;99.90;;;;;;5030290;28;20423;-56
2022/04/06 02:12:45;;;;;;;17.73;7.50;;;8.70;99.90;;;;;;5030296;28;20423;-58
2022/04/06 02:15:13;;;;;;;14.40;7.50;;;8.70;99.90;;;;;;5030125;28;20419;-58
2022/04/06 02:17:42;;;;;;;15.77;7.40;;;8.80;99.90;;;;;;5029624;28;20469;-58
2022/04/06 02:20:09;;;;;;;19.08;7.65;;;8.80;99.90;;;;;;5029939;28;20427;-58
2022/04/06 02:22:36;;;;;;;16.75;6.95;;;8.80;99.90;;;;;;5030033;28;20493;-58
2022/04/06 02:25:04;;;;;;;16.40;7.28;;;8.80;99.90;;;;;;5029962;28;20423;-56
2022/04/06 02:27:31;;;;;;;15.52;6.90;;;8.80;99.90;;;;;;5032685;28;20403;-58
2022/04/06 02:29:59;;;;;;;14.90;7.22;;;8.80;99.90;;;;;;5033901;28;20474;-58
2022/04/06 02:32:25;;;;;;;16.17;6.80;;;8.70;99.90;;;;;;5033630;28;20422;-56
2022/04/06 02:34:52;;;;;;;17.33;7.22;;;8.70;99.90;;;;;;5033611;28;20419;-57
2022/04/06 02:37:19;;;;;;;12.93;6.20;;;8.70;99.90;;;;;;5033367;28;20480;-58
2022/04/06 02:39:45;;;;;;;14.20;6.50;;;8.70;99.90;;;;;;5033366;28;20477;-58
2022/04/06 02:42:12;;;;;;;16.60;6.38;;;8.70;99.90;;;;;;5033471;28;20415;-55
2022/04/06 02:44:39;;;;;;;18.63;6.35;;;8.70;99.90;;;;;;5033675;28;20411;-58
2022/04/06 02:47:07;;;;;;;12.27;6.10;;;8.70;99.90;;;;;;5032745;28;20996;-57
2022/04/06 02:49:34;;;;;;;15.40;5.70;;;8.70;99.90;;;;;;5033364;28;20423;-58
2022/04/06 02:52:01;;;;;;;11.85;5.63;;;8.80;99.90;;;;;;5033840;28;20445;-58
2022/04/06 02:54:27;;;;;;;10.55;5.68;;;8.70;99.90;;;;;;5033086;28;21200;-58
2022/04/06 02:56:54;;;;;;;15.18;5.60;;;8.70;99.90;;;;;;5032929;28;20526;-58
2022/04/06 02:59:21;;;;;;;14.07;5.60;;;8.70;99.90;;;;;;5033022;28;20959;-58
2022/04/06 03:01:47;;;;;;;12.82;5.20;;;8.70;99.90;;;;;;5033379;28;20465;-58
2022/04/06 03:04:15;;;;;;;11.93;5.47;;;8.70;99.90;;;;;;5032879;28;20415;-58
2022/04/06 03:06:42;;;;;;;12.85;5.50;;;8.60;99.90;;;;;;5032904;28;20477;-58
2022/04/06 03:09:09;;;;;;;14.27;5.72;;;8.60;99.90;;;;;;5033281;28;20415;-58
2022/04/06 03:11:36;;;;;;;13.07;5.40;;;8.60;99.90;;;;;;5033067;28;20418;-58
2022/04/06 03:14:02;;;;;;;8.43;5.00;;;8.70;99.90;;;;;;5033112;28;20415;-58
2022/04/06 03:16:29;;;;;;;13.30;5.00;;;8.70;99.90;;;;;;5032139;28;20935;-58
2022/04/06 03:18:57;;;;;;;12.02;5.25;;;8.70;99.90;;;;;;5032857;28;20939;-57
2022/04/06 03:21:25;;;;;;;13.80;5.70;;;8.60;99.90;;;;;;5032985;28;20422;-58
2022/04/06 03:23:51;;;;;;;15.97;5.13;;;8.60;99.90;;;;;;5032836;28;20976;-55
2022/04/06 03:26:18;;;;;;;13.65;5.43;;;8.70;99.90;;;;;;5032123;28;20435;-57
2022/04/06 03:28:44;;;;;;;13.50;5.13;;;8.60;99.90;;;;;;5032594;28;20519;-58
2022/04/06 03:31:11;;;;;;;10.50;4.60;;;8.70;99.90;;;;;;5032343;28;20423;-58
2022/04/06 03:33:38;;;;;;;11.70;5.45;;;8.80;99.90;;;;;;5032494;28;20419;-58
2022/04/06 03:36:05;;;;;;;11.82;5.43;;;8.70;99.90;;;;;;5032389;28;20423;-58
2022/04/06 03:38:34;;;;;;;10.30;5.10;;;8.70;99.90;;;;;;5031574;28;20817;-57
2022/04/06 03:41:00;;;;;;;13.40;5.43;;;8.70;99.90;;;;;;5032573;28;20476;-58
2022/04/06 03:43:27;;;;;;;12.20;5.55;;;8.60;99.90;;;;;;5032414;28;20422;-58
2022/04/06 03:45:54;;;;;;;14.98;5.55;;;8.60;99.90;;;;;;5031852;28;20427;-58
2022/04/06 03:48:22;;;;;;;10.48;5.30;;;8.60;99.90;;;;;;5032317;28;20502;-58
2022/04/06 03:50:50;;;;;;;10.00;5.35;;;8.70;99.90;;;;;;5032321;28;20423;-58
2022/04/06 03:53:17;;;;;;;11.20;5.47;;;8.60;99.90;;;;;;5032177;28;20427;-58
2022/04/06 03:55:45;;;;;;;13.45;5.90;;;8.70;99.90;;;;;;5032065;28;20418;-58
2022/04/06 03:58:11;;;;;;;11.40;5.68;;;8.70;99.90;;;;;;5031826;28;20480;-58
2022/04/06 04:00:38;;;;;;;13.18;6.03;;;8.60;99.90;;;;;;5031832;28;20427;-58
2022/04/06 04:03:05;;;;;;;14.00;5.70;;;8.70;99.90;;;;;;5032190;28;20414;-54
2022/04/06 04:05:32;;;;;;;15.18;6.00;;;8.70;99.90;;;;;;5031968;28;20429;-58
2022/04/06 04:07:59;;;;;;;10.85;5.50;;;8.60;99.90;;;;;;5031741;28;20477;-57
2022/04/06 04:10:25;;;;;;;13.13;6.10;;;8.60;99.90;;;;;;5031703;28;20414;-58
2022/04/06 04:12:53;;;;;;;11.73;5.45;;;8.60;99.90;;;;;;5031500;28;20415;-57
2022/04/06 04:15:20;;;;;;;12.20;6.57;;;8.60;99.90;;;;;;5032048;28;20830;-57
2022/04/06 04:17:47;;;;;;;11.77;6.07;;;8.60;99.90;;;;;;5031119;28;20411;-57
2022/04/06 04:20:13;;;;;;;9.85;5.85;;;8.60;99.90;;;;;;5031859;28;20424;-57
2022/04/06 04:22:40;;;;;;;12.30;6.38;;;8.50;99.90;;;;;;5031580;28;20480;-57
2022/04/06 04:25:08;;;;;;;12.48;5.80;;;8.50;99.90;;;;;;5031607;28;20476;-56
2022/04/06 04:27:35;;;;;;;12.50;6.35;;;8.40;99.90;;;;;;5030924;28;20952;-57
2022/04/06 04:30:04;;;;;;;10.65;5.65;;;8.40;99.90;;;;;;5031681;28;20784;-58
2022/04/06 04:32:31;;;;;;;11.88;5.90;;;8.40;99.90;;;;;;5031615;28;20415;-57
2022/04/06 04:34:59;;;;;;;13.18;6.07;;;8.40;99.90;;;;;;5031282;28;20426;-57
2022/04/06 04:37:25;;;;;;;11.85;5.78;;;8.50;99.90;;;;;;5031061;28;20465;-57
2022/04/06 04:39:52;;;;;;;9.93;5.32;;;8.40;99.90;;;;;;5031000;28;20915;-57
2022/04/06 04:42:19;;;;;;;12.05;5.80;;;8.40;99.90;;;;;;5031482;28;20484;-58
2022/04/06 04:44:46;;;;;;;9.90;5.50;;;8.40;99.90;;;;;;5031165;28;20912;-58
2022/04/06 04:47:14;;;;;;;11.35;5.68;;;8.40;99.90;;;;;;5030795;28;20426;-56
2022/04/06 04:49:42;;;;;;;8.45;4.57;;;8.50;99.90;;;;;;5031329;28;20415;-57
2022/04/06 04:52:09;;;;;;;9.45;5.05;;;8.30;99.90;;;;;;5031060;28;20480;-55
2022/04/06 04:54:36;;;;;;;9.48;5.07;;;8.30;99.90;;;;;;5030921;28;20946;-54
2022/04/06 04:57:03;;;;;;;10.93;4.97;;;8.20;99.90;;;;;;5030847;28;20762;-57
2022/04/06 04:59:30;;;;;;;12.27;5.38;;;8.10;99.90;;;;;;5031193;28;20415;-56
2022/04/06 05:01:56;;;;;;;9.30;5.20;;;8.00;99.90;;;;;;5030980;28;20459;-55
2022/04/06 05:04:24;;;;;;;7.55;4.65;;;8.10;99.90;;;;;;5030937;28;20477;-57
2022/04/06 05:06:51;;;;;;;14.07;5.60;;;8.00;99.90;;;;;;5030335;28;20431;-57
2022/04/06 05:09:18;;;;;;;10.75;5.10;;;8.00;99.90;;;;;;5030761;28;20430;-57
2022/04/06 05:11:44;;;;;;;12.20;5.03;;;8.10;99.90;;;;;;5031159;28;20494;-57
2022/04/06 05:14:11;;;;;;;9.23;5.15;;;8.10;99.90;;;;;;5030809;28;20477;-58
2022/04/06 05:16:38;;;;;;;9.10;4.97;;;8.20;99.90;;;;;;5030393;28;20442;-55
2022/04/06 05:19:04;;;;;;;13.02;4.97;;;8.20;99.90;;;;;;5030734;28;20466;-57
2022/04/06 05:21:32;;;;;;;10.33;5.07;;;8.20;99.90;;;;;;5030489;28;20828;-57
2022/04/06 05:23:59;;;;;;;9.13;4.78;;;8.20;99.90;;;;;;5030592;28;20476;-57
2022/04/06 05:26:26;;;;;;;8.77;4.15;;;8.20;99.90;;;;;;5030346;28;20422;-56
2022/04/06 05:28:53;;;;;;;9.23;4.30;;;8.30;99.90;;;;;;5030581;28;20419;-56
2022/04/06 05:31:19;;;;;;;8.77;4.15;;;8.30;99.90;;;;;;5030263;28;20494;-57
2022/04/06 05:33:46;;;;;;;8.53;3.97;;;8.30;99.90;;;;;;5030562;28;20856;-58
2022/04/06 05:36:13;;;;;;;8.07;3.92;;;8.40;99.90;;;;;;5029711;28;20422;-56
2022/04/06 05:38:41;;;;;;;8.77;3.90;;;8.40;97.70;;;;;;5030539;28;20419;-54
2022/04/06 05:41:08;;;;;;;10.10;3.72;;;8.50;97.70;;;;;;5030609;28;20419;-54
2022/04/06 05:43:34;;;;;;;9.70;3.63;;;8.40;99.90;;;;;;5030052;28;20886;-51
2022/04/06 05:46:01;;;;;;;8.77;3.80;;;8.50;98.70;;;;;;5029951;28;20473;-56
2022/04/06 05:48:28;;;;;;;7.65;3.63;;;8.50;99.50;;;;;;5030235;28;20454;-54
2022/04/06 05:50:54;;;;;;;10.60;3.83;;;8.40;99.90;;;;;;5030252;28;20415;-56
2022/04/06 05:53:21;;;;;;;10.60;3.97;;;8.40;92.90;;;;;;5030413;28;20423;-55
2022/04/06 05:55:50;;;;;;;8.38;3.92;;;8.40;94.40;;;;;;5030237;28;20481;-57
2022/04/06 05:58:17;;;;;;;9.80;3.67;;;8.40;98.20;;;;;;5030109;28;20423;-54
2022/04/06 06:00:44;;;;;;;9.85;3.83;;;8.50;95.30;;;;;;5030335;28;20451;-55
2022/04/06 06:03:10;;;;;;;9.65;3.80;;;8.60;95.40;;;;;;5034290;28;20418;-57
2022/04/06 06:05:37;;;;;;;9.52;4.20;;;8.60;86.10;;;;;;5033932;28;20904;-53
2022/04/06 06:08:04;;;;;;;8.60;3.97;;;8.60;93.20;;;;;;5033762;28;20484;-58
2022/04/06 06:10:31;;;;;;;12.20;4.80;;;8.60;97.60;;;;;;5034017;28;20418;-58
2022/04/06 06:12:59;;;;;;;8.77;4.28;;;8.60;97.50;;;;;;5034014;28;20438;-50
2022/04/06 06:15:26;;;;;;;9.20;4.13;;;8.60;99.40;;;;;;5034018;28;20762;-55
2022/04/06 06:17:53;;;;;;;10.35;4.78;;;8.60;99.90;;;;;;5033026;28;20418;-55
2022/04/06 06:20:19;;;;;;;10.05;4.65;;;8.60;99.90;;;;;;5034042;28;20415;-54
2022/04/06 06:22:46;;;;;;;11.70;5.10;;;8.60;99.90;;;;;;5033889;28;20482;-55
2022/04/06 06:25:13;;;;;;;10.07;4.95;;;8.70;98.30;;;;;;5033822;28;20419;-57
2022/04/06 06:27:40;;;;;;;9.75;5.15;;;8.60;99.90;;;;;;5033198;28;20430;-59
2022/04/06 06:30:11;;;;;;;10.15;4.60;;;8.70;97.30;;;;;;5033485;28;20473;-56
2022/04/06 06:32:38;;;;;;;11.52;4.85;;;8.70;96.90;;;;;;5033830;28;20415;-58
2022/04/06 06:35:05;;;;;;;10.20;5.30;;;8.70;95.70;;;;;;5033383;28;20827;-55
2022/04/06 06:37:32;;;;;;;10.80;4.70;;;8.70;96.60;;;;;;5033193;28;20503;-55
2022/04/06 06:39:59;;;;;;;10.43;4.75;;;8.70;94.80;;;;;;5033301;28;20422;-57
2022/04/06 06:42:26;;;;;;;11.30;4.50;;;8.70;95.30;;;;;;5033417;28;20426;-59
2022/04/06 06:44:53;;;;;;;7.75;4.07;;;8.70;91.40;;;;;;5033113;28;20419;-58
2022/04/06 06:47:20;;;;;;;9.25;3.90;;;8.70;85.10;;;;;;5033129;28;21006;-59
2022/04/06 06:49:47;;;;;;;7.57;3.90;;;8.80;90.00;;;;;;5033210;28;20411;-59
2022/04/06 06:52:14;;;;;;;8.18;4.03;;;8.80;85.60;;;;;;5033155;28;20422;-60
2022/04/06 06:54:41;;;;;;;8.98;3.60;;;8.80;90.70;;;;;;5033251;28;20444;-58
2022/04/06 06:57:10;;;;;;;11.00;3.88;;;8.80;62.70;;;;;;5032638;28;20808;-54
2022/04/06 06:59:37;;;;;;;7.68;3.70;;;8.80;1.00;;;;;;5033075;28;20422;-58
2022/04/06 07:02:04;;;;;;;7.35;4.10;;;8.70;99.90;;;;;;5033044;28;20477;-57
2022/04/06 07:04:32;;;;;;;9.65;3.72;;;8.70;99.90;;;;;;5033154;28;20419;-59
2022/04/06 07:06:58;;;;;;;10.73;3.88;;;8.70;99.90;;;;;;5032476;28;20431;-59
2022/04/06 07:09:25;;;;;;;12.83;4.13;;;8.70;99.90;;;;;;5032840;28;20596;-58
2022/04/06 07:11:52;;;;;;;6.50;3.40;;;8.70;99.90;;;;;;5032564;28;20813;-57
2022/04/06 07:14:19;;;;;;;8.40;3.55;;;8.70;99.90;;;;;;5031648;28;20489;-58
2022/04/06 07:16:46;;;;;;;10.85;4.05;;;8.70;99.90;;;;;;5032455;28;20485;-59
2022/04/06 07:19:12;;;;;;;9.48;3.58;;;8.70;99.90;;;;;;5032415;28;20476;-60
2022/04/06 07:21:40;;;;;;;10.80;3.67;;;8.70;99.90;;;;;;5032769;28;20477;-59
2022/04/06 07:24:07;;;;;;;7.47;3.53;;;8.70;99.90;;;;;;5025226;28;20431;-61
2022/04/06 07:26:34;;;;;;;7.75;3.53;;;8.70;99.90;;;;;;5039346;28;20414;-61
2022/04/06 07:29:00;;;;;;;7.70;3.33;;;8.70;99.90;;;;;;5032195;28;20794;-60
2022/04/06 07:31:27;;;;;;;9.27;3.75;;;8.70;1.00;;;;;;5032424;28;20418;-60
2022/04/06 07:33:54;;;;;;;7.95;3.30;;;8.70;1.00;;;;;;5031706;28;20423;-60
2022/04/06 07:36:20;;;;;;;8.45;4.05;;;8.70;99.90;;;;;;5031516;28;20419;-63
2022/04/06 07:38:48;;;;;;;7.43;3.75;;;8.60;1.00;;;;;;5031465;28;20886;-62
2022/04/06 07:41:15;;;;;;;9.43;4.35;;;8.60;1.00;;;;;;5030956;28;20484;-62
2022/04/06 07:43:42;;;;;;;8.82;3.90;;;8.60;1.00;;;;;;5031664;28;20419;-62
2022/04/06 07:46:08;;;;;;;7.82;3.60;;;8.70;1.00;;;;;;5031511;28;20430;-61
2022/04/06 07:48:35;;;;;;;6.80;4.10;;;8.70;1.00;;;;;;5031343;28;20427;-62
2022/04/06 07:51:02;;;;;;;8.13;3.90;;;8.60;1.00;;;;;;5031840;28;20473;-62
2022/04/06 07:53:28;;;;;;;7.10;3.90;;;8.60;1.00;;;;;;5031228;28;20480;-61
2022/04/06 07:55:56;;;;;;;9.63;4.18;;;8.60;1.00;;;;;;5030650;28;20426;-61
2022/04/06 07:58:23;;;;;;;11.80;3.92;;;8.60;1.00;;;;;;5031934;28;20533;-62
2022/04/06 08:00:50;;;;;;;6.40;3.80;;;8.70;1.00;;;;;;5031529;28;20426;-62
2022/04/06 08:03:17;;;;;;;9.82;3.97;;;8.80;1.00;;;;;;5031558;28;20940;-62
2022/04/06 08:05:43;;;;;;;7.43;3.80;;;8.90;99.90;;;;;;5031447;28;20418;-63
2022/04/06 08:08:10;;;;;;;7.65;3.67;;;8.90;99.90;;;;;;5030790;28;20431;-60
2022/04/06 08:10:37;;;;;;;6.82;3.53;;;8.80;99.90;;;;;;5031263;28;20429;-60
2022/04/06 08:13:05;;;;;;;7.30;3.38;;;8.90;99.90;;;;;;5031265;28;20423;-64
2022/04/06 08:15:32;;;;;;;7.15;3.25;;;8.90;99.90;;;;;;5031369;28;20415;-65
2022/04/06 08:17:59;;;;;;;6.97;3.58;;;8.90;99.90;;;;;;5024575;28;20436;-59
2022/04/06 08:20:26;;;;;;;6.55;3.80;;;8.90;99.90;;;;;;5031233;28;20817;-61
2022/04/06 08:22:53;;;;;;;9.02;3.95;;;8.90;99.90;;;;;;5031358;28;20422;-61
2022/04/06 08:25:19;;;;;;;7.75;3.53;;;8.80;99.90;;;;;;5030992;28;20878;-63
2022/04/06 08:27:46;;;;;;;8.25;3.80;;;8.80;99.90;;;;;;5030980;28;20431;-63
2022/04/06 08:30:16;;;;;;;7.72;3.65;;;8.80;99.90;;;;;;5031408;28;20423;-64
2022/04/06 08:32:44;;;;;;;6.47;3.45;;;8.80;99.90;;;;;;5030979;28;20425;-62
2022/04/06 08:35:12;;;;;;;6.97;3.70;;;8.90;99.90;;;;;;5030746;28;20426;-62
2022/04/06 08:37:39;;;;;;;7.23;3.50;;;8.90;99.90;;;;;;5030182;28;20857;-62
2022/04/06 08:40:09;;;;;;;9.27;3.63;;;8.90;99.90;;;;;;5031121;28;20980;-61
2022/04/06 08:42:36;;;;;;;7.68;3.65;;;8.80;99.90;;;;;;5030822;28;20422;-64
2022/04/06 08:45:04;;;;;;;6.75;3.25;;;8.90;99.90;;;;;;5031113;28;20477;-63
2022/04/06 08:47:32;;;;;;;6.70;3.25;;;8.90;99.90;;;;;;5030332;28;20917;-62
2022/04/06 08:49:59;;;;;;;6.63;3.25;;;8.90;70.10;;;;;;5030425;28;20419;-60
2022/04/06 08:52:26;;;;;;;7.82;3.22;;;9.00;85.90;;;;;;5030945;28;20419;-59
2022/04/06 08:54:53;;;;;;;6.57;3.10;;;8.90;99.90;;;;;;5030359;28;20419;-58
2022/04/06 08:57:20;;;;;;;5.63;3.00;;;8.90;99.90;;;;;;5030347;28;20501;-62
2022/04/06 08:59:48;;;;;;;6.30;3.10;;;8.90;99.90;;;;;;5030598;28;20546;-60
2022/04/06 09:02:19;;;;;;;5.85;3.13;;;8.90;1.00;;;;;;5029684;28;20415;-60
2022/04/06 09:04:52;;;;;;;5.18;3.03;;;8.90;1.00;;;;;;5030502;28;21323;-60
2022/04/06 09:07:21;;;;;;;5.17;2.60;;;8.90;95.50;;;;;;5030347;28;20844;-61
2022/04/06 09:09:51;;;;;;;5.90;2.67;;;9.00;99.90;;;;;;5031064;28;20465;-61
2022/04/06 09:12:20;;;;;;;6.03;3.20;;;9.10;1.00;;;;;;5030803;28;20419;-60
2022/04/06 09:14:48;;;;;;;8.57;3.35;;;9.10;99.30;;;;;;5030775;28;20415;-59
2022/04/06 09:17:20;;;;;;;5.13;2.75;;;9.20;99.90;;;;;;5030190;28;20414;-61
2022/04/06 09:19:49;;;;;;;6.05;2.80;;;9.20;3.00;;;;;;5030553;28;21012;-61
2022/04/06 09:22:17;;;;;;;7.78;2.67;;;9.20;80.20;;;;;;5031249;28;20489;-59
2022/04/06 09:24:44;;;;;;;6.45;2.50;;;9.30;99.90;;;;;;5030570;28;20425;-56
2022/04/06 09:27:11;;;;;;;3.97;2.15;;;9.50;1.00;;;;;;5030634;28;20414;-59
2022/04/06 09:29:37;;;;;;;6.03;2.10;;;9.50;99.90;;;;;;5031670;28;20454;-56
2022/04/06 09:32:08;;;;;;;6.75;2.58;;;9.60;99.90;;;;;;5031302;28;20423;-59
2022/04/06 09:34:35;;;;;;;7.20;2.78;;;9.70;1.00;;;;;;5030478;28;20886;-59
2022/04/06 09:37:24;;;;;;;7.60;2.80;;;9.80;1.00;;;;;;5029307;28;20433;-60
2022/04/06 09:39:51;;;;;;;7.70;2.30;;;9.80;99.90;;;;;;5030451;28;20408;-58
2022/04/06 09:42:22;;;;;;;5.57;2.47;;;9.70;99.90;;;;;;5030263;28;20874;-59
2022/04/06 09:47:40;;;;;;;5.82;1.90;;;9.60;1.00;;;;;;5029793;28;20509;-58
2022/04/06 09:50:12;;;;;;;2.72;1.67;;;9.60;1.00;;;;;;5030220;28;20415;-59
2022/04/06 09:52:40;;;;;;;4.47;1.87;;;9.50;99.90;;;;;;5030360;28;20427;-60
2022/04/06 09:55:09;;;;;;;8.90;2.33;;;9.60;1.00;;;;;;5030572;28;20481;-60
2022/04/06 09:57:41;;;;;;;3.92;1.80;;;9.50;1.00;;;;;;5030140;28;20782;-59
2022/04/06 10:00:10;;;;;;;4.35;1.77;;;9.50;99.90;;;;;;5030452;28;20414;-58
2022/04/06 10:02:37;;;;;;;5.75;2.30;;;9.40;1.00;;;;;;5030361;28;20513;-59
2022/04/06 10:05:04;;;;;;;5.43;1.77;;;9.40;1.00;;;;;;5030094;28;20464;-59
2022/04/06 10:07:32;;;;;;;8.90;2.00;;;9.50;12.00;;;;;;5030033;28;20418;-59
2022/04/06 10:10:01;;;;;;;4.83;1.90;;;9.50;1.00;;;;;;5029989;28;20419;-59
2022/04/06 10:12:28;;;;;;;6.27;1.80;;;9.40;99.90;;;;;;5030270;28;20898;-58
2022/04/06 10:14:54;;;;;;;6.82;2.13;;;9.30;99.90;;;;;;5029961;28;20418;-58
2022/04/06 10:17:22;;;;;;;6.05;2.00;;;9.30;1.00;;;;;;5029422;28;20415;-58
2022/04/06 10:19:56;;;;;;;4.50;1.80;;;9.30;1.00;;;;;;5030322;28;20423;-59
2022/04/06 10:22:31;;;;;;;5.07;1.90;;;9.40;1.00;;;;;;5030094;28;20419;-59
2022/04/06 10:25:06;;;;;;;5.17;1.70;;;9.40;1.00;;;;;;5030216;28;20465;-59
2022/04/06 10:27:36;;;;;;;7.05;1.63;;;9.50;99.90;;;;;;5029536;28;20496;-59
2022/04/06 10:30:14;;;;;;;3.90;1.95;;;9.60;99.90;;;;;;5030070;28;20443;-57
2022/04/06 10:32:42;;;;;;;5.50;1.83;;;9.50;99.90;;;;;;5029990;28;20425;-55
2022/04/06 10:35:24;;;;;;;3.38;1.73;;;9.50;99.90;;;;;;5029971;28;20453;-58
2022/04/06 10:37:53;;;;;;;4.82;2.20;;;9.60;99.90;;;;;;5029496;28;20422;-59
2022/04/06 10:40:22;;;;;;;5.57;1.90;;;9.60;99.90;;;;;;5029701;28;20482;-59
2022/04/06 10:42:49;;;;;;;4.43;1.77;;;9.70;99.90;;;;;;5029856;28;20415;-59
2022/04/06 10:45:35;;;;;;;4.10;2.28;;;9.70;99.90;;;;;;5029661;28;20890;-57
2022/04/06 10:48:12;;;;;;;4.97;1.77;;;9.70;99.90;;;;;;5031504;28;20445;-60
2022/04/06 10:50:39;;;;;;;3.75;1.70;;;9.70;99.90;;;;;;5033088;28;20415;-60
2022/04/06 10:53:29;;;;;;;4.40;1.70;;;9.70;99.90;;;;;;5033201;28;20418;-60
2022/04/06 10:56:06;;;;;;;6.75;1.83;;;9.70;99.90;;;;;;5032647;28;20422;-60
2022/04/06 10:59:07;;;;;;;6.10;2.05;;;9.70;99.90;;;;;;5033463;28;20473;-59
2022/04/06 11:01:34;;;;;;;4.60;1.70;;;9.60;99.90;;;;;;5033544;28;20419;-59
2022/04/06 11:04:04;;;;;;;4.88;1.50;;;9.60;1.00;;;;;;5033507;28;20786;-59
2022/04/06 11:06:53;;;;;;;6.05;1.95;;;9.60;1.00;;;;;;5032866;28;20481;-62
2022/04/06 11:12:13;;;;;;;4.88;2.10;;;9.70;99.90;;;;;;5031895;28;20538;-62
2022/04/06 11:14:41;;;;;;;5.80;1.92;;;9.80;1.00;;;;;;5032542;28;20472;-63
2022/04/06 11:17:37;;;;;;;5.75;2.00;;;9.80;1.00;;;;;;5031471;28;20476;-62
2022/04/06 11:20:07;;;;;;;3.85;1.80;;;9.90;99.90;;;;;;5030701;28;20411;-60
2022/04/06 11:22:34;;;;;;;5.80;2.30;;;10.00;99.90;;;;;;5032640;28;20450;-62
2022/04/06 11:25:01;;;;;;;5.78;2.00;;;10.00;1.00;;;;;;5032717;28;20414;-60
2022/04/06 11:27:30;;;;;;;4.75;2.10;;;10.00;99.90;;;;;;5032126;28;20468;-60
2022/04/06 11:30:01;;;;;;;3.58;1.73;;;10.00;1.00;;;;;;5032146;28;20430;-60
2022/04/06 11:32:28;;;;;;;5.55;2.00;;;10.00;1.00;;;;;;5031970;28;20550;-60
2022/04/06 11:35:00;;;;;;;5.18;2.03;;;10.00;1.00;;;;;;5032695;28;20426;-62
2022/04/06 11:37:27;;;;;;;3.05;1.83;;;10.10;99.90;;;;;;5031780;28;20505;-62
2022/04/06 11:39:57;;;;;;;3.42;1.70;;;10.10;99.90;;;;;;5032016;28;20423;-63
2022/04/06 11:42:24;;;;;;;4.35;1.75;;;10.10;99.90;;;;;;5032221;28;20501;-62
2022/04/06 11:44:52;;;;;;;4.22;1.90;;;10.10;99.90;;;;;;5032433;28;20786;-61
2022/04/06 11:47:29;;;;;;;4.35;2.15;;;10.10;99.90;;;;;;5030703;28;20809;-61
2022/04/06 11:49:56;;;;;;;5.03;2.00;;;9.90;1.00;;;;;;5032082;28;20439;-62
2022/04/06 11:52:23;;;;;;;5.05;2.13;;;9.80;1.00;;;;;;5031933;28;20476;-62
2022/04/06 11:54:52;;;;;;;4.95;2.65;;;9.90;99.90;;;;;;5031966;28;20411;-62
2022/04/06 11:57:19;;;;;;;5.55;2.47;;;9.80;1.00;;;;;;5031610;28;20703;-64
2022/04/06 11:59:57;;;;;;;4.88;2.40;;;9.70;1.00;;;;;;5030738;28;20411;-62
2022/04/06 12:02:24;;;;;;;6.40;2.30;;;9.60;59.70;;;;;;5031917;28;20828;-64
2022/04/06 12:05:01;;;;;;;4.28;2.45;;;9.60;1.00;;;;;;5031831;28;20864;-64
2022/04/06 12:07:28;;;;;;;4.20;2.22;;;9.60;99.90;;;;;;5031268;28;20434;-64
2022/04/06 12:09:54;;;;;;;6.20;2.53;;;9.70;1.00;;;;;;5031245;28;20967;-63
2022/04/06 12:12:22;;;;;;;5.33;2.80;;;9.50;40.50;;;;;;5031635;28;20498;-63
2022/04/06 12:14:49;;;;;;;4.18;2.90;;;9.20;99.90;;;;;;5031886;28;20422;-62
2022/04/06 12:17:17;;;;;;;5.72;2.63;;;9.20;99.90;;;;;;5030927;28;20469;-62
2022/04/06 12:19:44;;;;;;;7.22;3.15;;;9.30;1.00;;;;;;5031416;28;20407;-63
2022/04/06 12:22:12;;;;;;;4.22;2.65;;;9.10;1.00;;;;;;5031520;28;20419;-63
2022/04/06 12:24:39;;;;;;;4.65;2.83;;;9.20;1.00;;;;;;5031427;28;20446;-62
2022/04/06 12:27:06;;;;;;;3.33;2.30;;;9.30;99.90;;;;;;5031215;28;20426;-62
2022/04/06 12:29:35;;;;;;;4.68;2.70;;;9.40;99.90;;;;;;5031381;28;20427;-63
2022/04/06 12:32:04;;;;;;;4.40;2.87;;;9.60;99.90;;;;;;5031148;28;20778;-62
2022/04/06 12:34:34;;;;;;;4.95;2.60;;;9.70;99.90;;;;;;5031187;28;20972;-64
2022/04/06 12:37:29;;;;;;;5.50;2.40;;;9.80;19.20;;;;;;5030852;28;20420;-62
2022/04/06 12:39:51;;;;;;;4.25;2.70;;;9.80;99.90;;;;;;5030505;28;20415;-62
2022/04/06 12:42:18;;;;;;;5.93;2.60;;;9.60;99.90;;;;;;5031475;28;20415;-62
2022/04/06 12:45:00;;;;;;;4.75;2.50;;;9.60;99.90;;;;;;5031482;28;20442;-62
2022/04/06 12:47:27;;;;;;;3.83;2.30;;;9.50;1.00;;;;;;5030673;28;20419;-62
2022/04/06 12:50:12;;;;;;;5.07;2.20;;;9.50;99.90;;;;;;5031076;28;20431;-62
2022/04/06 12:52:38;;;;;;;5.60;2.77;;;9.50;1.00;;;;;;5031054;28;20415;-62
2022/04/06 12:55:07;;;;;;;3.00;2.20;;;9.50;1.00;;;;;;5030928;28;20422;-62
2022/04/06 12:57:36;;;;;;;3.92;2.10;;;9.50;8.70;;;;;;5030056;28;20940;-62
2022/04/06 13:00:07;;;;;;;3.72;2.08;;;9.50;99.90;;;;;;5030810;28;20419;-62
2022/04/06 13:02:35;;;;;;;4.40;2.60;;;9.50;99.90;;;;;;5030949;28;20450;-62
2022/04/06 13:05:05;;;;;;;4.15;2.85;;;9.50;99.90;;;;;;5030644;28;20825;-64
2022/04/06 13:07:35;;;;;;;5.78;2.60;;;9.70;99.90;;;;;;5032516;28;20446;-65
2022/04/06 13:10:03;;;;;;;7.95;3.75;;;9.80;99.90;;;;;;5033708;28;20435;-66